Jacksons Creek, North Carolina
Current Conditions -  °F | °C
As of 7:35 PM on Sunday 21 Dec 2014 (Local Time) from KHBI Reporting Station
Overcast Overcast  
Wind Chill: 45°   Ceiling: 3900
Heat Index: 45°   Visibility: 10mi
Dew Point: 37°   Wind: 0mph
Humidity: 73%   Direction: NA
Pressure: 30.24"   Gusts: NA
Location:  35.6015°N, 80.0858°W
Report Text: KHBI 220035Z AUTO 00000KT 10SM OVC039 07/03 A3024 RMK AO2 T00710025
Loading
Personal Weather Stations






























Interactive Weather Map New forecast layout! Learn more

10-Day Weather Forecast

Advertisements
Track Severe Weather on mobile